sensor_id;sensor_type;location;lat;lon;timestamp;temperature;humidity
66506;HTU21D;53332;51.082;5.832;2022-10-31T00:01:14;15.14;118.99
66506;HTU21D;53332;51.082;5.832;2022-10-31T00:03:40;15.10;118.99
66506;HTU21D;53332;51.082;5.832;2022-10-31T00:06:05;15.06;118.99
66506;HTU21D;53332;51.082;5.832;2022-10-31T00:08:31;14.99;118.99
66506;HTU21D;53332;51.082;5.832;2022-10-31T00:10:57;14.93;118.99
66506;HTU21D;53332;51.082;5.832;2022-10-31T00:13:22;14.85;118.99
66506;HTU21D;53332;51.082;5.832;2022-10-31T00:15:48;14.81;118.99
66506;HTU21D;53332;51.082;5.832;2022-10-31T00:18:13;14.79;118.99
66506;HTU21D;53332;51.082;5.832;2022-10-31T00:20:39;14.73;118.99
66506;HTU21D;53332;51.082;5.832;2022-10-31T00:23:06;14.70;118.99
66506;HTU21D;53332;51.082;5.832;2022-10-31T00:25:39;14.66;118.99
66506;HTU21D;53332;51.082;5.832;2022-10-31T00:28:06;14.56;118.99
66506;HTU21D;53332;51.082;5.832;2022-10-31T00:30:33;14.50;118.99
66506;HTU21D;53332;51.082;5.832;2022-10-31T00:33:00;14.45;118.99
66506;HTU21D;53332;51.082;5.832;2022-10-31T00:35:25;14.48;118.99
66506;HTU21D;53332;51.082;5.832;2022-10-31T00:37:52;14.50;118.99
66506;HTU21D;53332;51.082;5.832;2022-10-31T00:40:18;14.50;118.99
66506;HTU21D;53332;51.082;5.832;2022-10-31T00:42:43;14.49;118.99
66506;HTU21D;53332;51.082;5.832;2022-10-31T00:45:10;14.49;118.99
66506;HTU21D;53332;51.082;5.832;2022-10-31T00:47:36;14.51;118.99
66506;HTU21D;53332;51.082;5.832;2022-10-31T00:50:04;14.52;118.99
66506;HTU21D;53332;51.082;5.832;2022-10-31T00:52:29;14.53;118.99
66506;HTU21D;53332;51.082;5.832;2022-10-31T00:54:55;14.51;118.99
66506;HTU21D;53332;51.082;5.832;2022-10-31T00:57:21;14.50;118.99
66506;HTU21D;53332;51.082;5.832;2022-10-31T00:59:46;14.51;118.99
66506;HTU21D;53332;51.082;5.832;2022-10-31T01:02:12;14.53;118.99
66506;HTU21D;53332;51.082;5.832;2022-10-31T01:04:37;14.53;118.99
66506;HTU21D;53332;51.082;5.832;2022-10-31T01:07:03;14.55;118.99
66506;HTU21D;53332;51.082;5.832;2022-10-31T01:09:28;14.56;118.99
66506;HTU21D;53332;51.082;5.832;2022-10-31T01:11:54;14.56;118.99
66506;HTU21D;53332;51.082;5.832;2022-10-31T01:14:19;14.57;118.99
66506;HTU21D;53332;51.082;5.832;2022-10-31T01:16:45;14.57;118.99
66506;HTU21D;53332;51.082;5.832;2022-10-31T01:19:10;14.56;118.99
66506;HTU21D;53332;51.082;5.832;2022-10-31T01:21:36;14.55;118.99
66506;HTU21D;53332;51.082;5.832;2022-10-31T01:24:01;14.52;118.99
66506;HTU21D;53332;51.082;5.832;2022-10-31T01:26:30;14.51;118.99
66506;HTU21D;53332;51.082;5.832;2022-10-31T01:29:07;14.51;118.99
66506;HTU21D;53332;51.082;5.832;2022-10-31T01:31:38;14.52;118.99
66506;HTU21D;53332;51.082;5.832;2022-10-31T01:34:05;14.54;118.99
66506;HTU21D;53332;51.082;5.832;2022-10-31T01:36:37;14.53;118.99
66506;HTU21D;53332;51.082;5.832;2022-10-31T01:39:06;14.51;118.99
66506;HTU21D;53332;51.082;5.832;2022-10-31T01:41:35;14.50;118.99
66506;HTU21D;53332;51.082;5.832;2022-10-31T01:46:54;14.50;118.99
66506;HTU21D;53332;51.082;5.832;2022-10-31T01:52:04;14.45;118.99
66506;HTU21D;53332;51.082;5.832;2022-10-31T01:54:39;14.40;118.99
66506;HTU21D;53332;51.082;5.832;2022-10-31T01:57:08;14.37;118.99
66506;HTU21D;53332;51.082;5.832;2022-10-31T01:59:40;14.33;118.99
66506;HTU21D;53332;51.082;5.832;2022-10-31T02:02:07;14.28;118.99
66506;HTU21D;53332;51.082;5.832;2022-10-31T02:04:34;14.22;118.99
66506;HTU21D;53332;51.082;5.832;2022-10-31T02:07:13;14.08;118.99
66506;HTU21D;53332;51.082;5.832;2022-10-31T02:09:40;13.99;118.99
66506;HTU21D;53332;51.082;5.832;2022-10-31T02:12:09;13.92;118.99
66506;HTU21D;53332;51.082;5.832;2022-10-31T02:14:37;13.86;118.99
66506;HTU21D;53332;51.082;5.832;2022-10-31T02:17:04;13.82;118.99
66506;HTU21D;53332;51.082;5.832;2022-10-31T02:22:26;13.70;118.99
66506;HTU21D;53332;51.082;5.832;2022-10-31T02:27:48;13.78;118.99
66506;HTU21D;53332;51.082;5.832;2022-10-31T02:30:25;13.79;118.99
66506;HTU21D;53332;51.082;5.832;2022-10-31T02:35:40;13.80;118.99
66506;HTU21D;53332;51.082;5.832;2022-10-31T02:41:12;13.83;118.99
66506;HTU21D;53332;51.082;5.832;2022-10-31T02:46:25;13.88;118.99
66506;HTU21D;53332;51.082;5.832;2022-10-31T02:48:57;13.86;118.99
66506;HTU21D;53332;51.082;5.832;2022-10-31T02:51:25;13.83;118.99
66506;HTU21D;53332;51.082;5.832;2022-10-31T02:53:51;13.82;118.99
66506;HTU21D;53332;51.082;5.832;2022-10-31T02:56:19;13.78;118.99
66506;HTU21D;53332;51.082;5.832;2022-10-31T02:59:04;13.70;118.99
66506;HTU21D;53332;51.082;5.832;2022-10-31T03:06:52;13.61;118.99
66506;HTU21D;53332;51.082;5.832;2022-10-31T03:12:02;13.59;118.99
66506;HTU21D;53332;51.082;5.832;2022-10-31T03:14:48;13.58;118.99
66506;HTU21D;53332;51.082;5.832;2022-10-31T03:18:05;13.58;118.99
66506;HTU21D;53332;51.082;5.832;2022-10-31T03:20:47;13.54;118.99
66506;HTU21D;53332;51.082;5.832;2022-10-31T03:23:16;13.50;118.99
66506;HTU21D;53332;51.082;5.832;2022-10-31T03:25:44;13.46;118.99
66506;HTU21D;53332;51.082;5.832;2022-10-31T03:28:16;13.45;118.99
66506;HTU21D;53332;51.082;5.832;2022-10-31T03:30:46;13.41;118.99
66506;HTU21D;53332;51.082;5.832;2022-10-31T03:33:18;13.36;118.99
66506;HTU21D;53332;51.082;5.832;2022-10-31T03:35:51;13.35;118.99
66506;HTU21D;53332;51.082;5.832;2022-10-31T03:38:20;13.36;118.99
66506;HTU21D;53332;51.082;5.832;2022-10-31T03:40:51;13.39;118.99
66506;HTU21D;53332;51.082;5.832;2022-10-31T03:43:24;13.37;118.99
66506;HTU21D;53332;51.082;5.832;2022-10-31T03:45:50;13.34;118.99
66506;HTU21D;53332;51.082;5.832;2022-10-31T03:48:19;13.31;118.99
66506;HTU21D;53332;51.082;5.832;2022-10-31T03:51:08;13.26;118.99
66506;HTU21D;53332;51.082;5.832;2022-10-31T03:53:46;13.23;118.99
66506;HTU21D;53332;51.082;5.832;2022-10-31T03:59:11;13.24;118.99
66506;HTU21D;53332;51.082;5.832;2022-10-31T04:01:44;13.23;118.99
66506;HTU21D;53332;51.082;5.832;2022-10-31T04:04:11;13.22;118.99
66506;HTU21D;53332;51.082;5.832;2022-10-31T04:06:42;13.22;118.99
66506;HTU21D;53332;51.082;5.832;2022-10-31T04:09:09;13.19;118.99
66506;HTU21D;53332;51.082;5.832;2022-10-31T04:11:44;13.17;118.99
66506;HTU21D;53332;51.082;5.832;2022-10-31T04:14:11;13.11;118.99
66506;HTU21D;53332;51.082;5.832;2022-10-31T04:16:41;13.08;118.99
66506;HTU21D;53332;51.082;5.832;2022-10-31T04:19:08;13.04;118.99
66506;HTU21D;53332;51.082;5.832;2022-10-31T04:21:33;13.02;118.99
66506;HTU21D;53332;51.082;5.832;2022-10-31T04:23:59;13.02;118.99
66506;HTU21D;53332;51.082;5.832;2022-10-31T04:26:25;13.03;118.99
66506;HTU21D;53332;51.082;5.832;2022-10-31T04:28:50;13.02;118.99
66506;HTU21D;53332;51.082;5.832;2022-10-31T04:31:16;13.02;118.99
66506;HTU21D;53332;51.082;5.832;2022-10-31T04:33:41;13.00;118.99
66506;HTU21D;53332;51.082;5.832;2022-10-31T04:36:07;12.95;118.99
66506;HTU21D;53332;51.082;5.832;2022-10-31T04:38:33;12.94;118.99
66506;HTU21D;53332;51.082;5.832;2022-10-31T04:40:58;12.92;118.99
66506;HTU21D;53332;51.082;5.832;2022-10-31T04:43:24;12.90;118.99
66506;HTU21D;53332;51.082;5.832;2022-10-31T04:45:49;12.91;118.99
66506;HTU21D;53332;51.082;5.832;2022-10-31T04:48:15;12.91;118.99
66506;HTU21D;53332;51.082;5.832;2022-10-31T04:50:41;12.93;118.99
66506;HTU21D;53332;51.082;5.832;2022-10-31T04:53:06;12.93;118.99
66506;HTU21D;53332;51.082;5.832;2022-10-31T04:55:32;12.92;118.99
66506;HTU21D;53332;51.082;5.832;2022-10-31T04:57:57;12.90;118.99
66506;HTU21D;53332;51.082;5.832;2022-10-31T05:00:23;12.86;118.99
66506;HTU21D;53332;51.082;5.832;2022-10-31T05:02:51;12.84;118.99
66506;HTU21D;53332;51.082;5.832;2022-10-31T05:05:19;12.80;118.99
66506;HTU21D;53332;51.082;5.832;2022-10-31T05:07:47;12.76;118.99
66506;HTU21D;53332;51.082;5.832;2022-10-31T05:10:16;12.75;118.99
66506;HTU21D;53332;51.082;5.832;2022-10-31T05:12:50;12.70;118.99
66506;HTU21D;53332;51.082;5.832;2022-10-31T05:15:17;12.65;118.99
66506;HTU21D;53332;51.082;5.832;2022-10-31T05:17:43;12.60;118.99
66506;HTU21D;53332;51.082;5.832;2022-10-31T05:20:11;12.57;118.99
66506;HTU21D;53332;51.082;5.832;2022-10-31T05:22:37;12.53;118.99
66506;HTU21D;53332;51.082;5.832;2022-10-31T05:25:03;12.50;118.99
66506;HTU21D;53332;51.082;5.832;2022-10-31T05:27:28;12.46;118.99
66506;HTU21D;53332;51.082;5.832;2022-10-31T05:29:54;12.44;118.99
66506;HTU21D;53332;51.082;5.832;2022-10-31T05:32:19;12.42;118.99
66506;HTU21D;53332;51.082;5.832;2022-10-31T05:34:45;12.38;118.99
66506;HTU21D;53332;51.082;5.832;2022-10-31T05:37:10;12.37;118.99
66506;HTU21D;53332;51.082;5.832;2022-10-31T05:39:37;12.37;118.99
66506;HTU21D;53332;51.082;5.832;2022-10-31T05:42:02;12.36;118.99
66506;HTU21D;53332;51.082;5.832;2022-10-31T05:44:28;12.38;118.99
66506;HTU21D;53332;51.082;5.832;2022-10-31T05:46:54;12.40;118.99
66506;HTU21D;53332;51.082;5.832;2022-10-31T05:49:19;12.40;118.99
66506;HTU21D;53332;51.082;5.832;2022-10-31T05:51:45;12.40;118.99
66506;HTU21D;53332;51.082;5.832;2022-10-31T05:54:10;12.41;118.99
66506;HTU21D;53332;51.082;5.832;2022-10-31T05:56:36;12.41;118.99
66506;HTU21D;53332;51.082;5.832;2022-10-31T05:59:01;12.41;118.99
66506;HTU21D;53332;51.082;5.832;2022-10-31T06:01:27;12.38;118.99
66506;HTU21D;53332;51.082;5.832;2022-10-31T06:03:52;12.37;118.99
66506;HTU21D;53332;51.082;5.832;2022-10-31T06:06:18;12.38;118.99
66506;HTU21D;53332;51.082;5.832;2022-10-31T06:08:43;12.40;118.99
66506;HTU21D;53332;51.082;5.832;2022-10-31T06:11:09;12.41;118.99
66506;HTU21D;53332;51.082;5.832;2022-10-31T06:13:34;12.41;118.99
66506;HTU21D;53332;51.082;5.832;2022-10-31T06:16:00;12.43;118.99
66506;HTU21D;53332;51.082;5.832;2022-10-31T06:18:26;12.45;118.99
66506;HTU21D;53332;51.082;5.832;2022-10-31T06:20:51;12.46;118.99
66506;HTU21D;53332;51.082;5.832;2022-10-31T06:23:17;12.48;118.99
66506;HTU21D;53332;51.082;5.832;2022-10-31T06:25:42;12.52;118.99
66506;HTU21D;53332;51.082;5.832;2022-10-31T06:28:08;12.51;118.99
66506;HTU21D;53332;51.082;5.832;2022-10-31T06:30:34;12.51;118.99
66506;HTU21D;53332;51.082;5.832;2022-10-31T06:33:06;12.50;118.99
66506;HTU21D;53332;51.082;5.832;2022-10-31T06:35:32;12.48;118.99
66506;HTU21D;53332;51.082;5.832;2022-10-31T06:37:58;12.43;118.99
66506;HTU21D;53332;51.082;5.832;2022-10-31T06:40:23;12.40;118.99
66506;HTU21D;53332;51.082;5.832;2022-10-31T06:42:59;12.35;118.99
66506;HTU21D;53332;51.082;5.832;2022-10-31T06:45:26;12.26;118.99
66506;HTU21D;53332;51.082;5.832;2022-10-31T06:47:53;12.15;118.99
66506;HTU21D;53332;51.082;5.832;2022-10-31T06:50:20;12.07;118.99
66506;HTU21D;53332;51.082;5.832;2022-10-31T06:52:57;12.04;118.99
66506;HTU21D;53332;51.082;5.832;2022-10-31T06:55:25;12.03;118.99
66506;HTU21D;53332;51.082;5.832;2022-10-31T06:57:59;12.00;118.99
66506;HTU21D;53332;51.082;5.832;2022-10-31T07:00:26;11.99;118.99
66506;HTU21D;53332;51.082;5.832;2022-10-31T07:03:02;12.01;118.99
66506;HTU21D;53332;51.082;5.832;2022-10-31T07:05:29;12.01;118.99
66506;HTU21D;53332;51.082;5.832;2022-10-31T07:07:57;12.02;118.99
66506;HTU21D;53332;51.082;5.832;2022-10-31T07:10:25;12.04;118.99
66506;HTU21D;53332;51.082;5.832;2022-10-31T07:12:55;12.05;118.99
66506;HTU21D;53332;51.082;5.832;2022-10-31T07:15:22;12.07;118.99
66506;HTU21D;53332;51.082;5.832;2022-10-31T07:17:47;12.08;118.99
66506;HTU21D;53332;51.082;5.832;2022-10-31T07:20:13;12.13;118.99
66506;HTU21D;53332;51.082;5.832;2022-10-31T07:22:39;12.16;118.99
66506;HTU21D;53332;51.082;5.832;2022-10-31T07:25:05;12.20;118.99
66506;HTU21D;53332;51.082;5.832;2022-10-31T07:27:42;12.19;118.99
66506;HTU21D;53332;51.082;5.832;2022-10-31T07:30:10;12.21;118.99
66506;HTU21D;53332;51.082;5.832;2022-10-31T07:32:44;12.27;118.99
66506;HTU21D;53332;51.082;5.832;2022-10-31T07:35:12;12.29;118.99
66506;HTU21D;53332;51.082;5.832;2022-10-31T07:37:39;12.34;118.99
66506;HTU21D;53332;51.082;5.832;2022-10-31T07:40:06;12.36;118.99
66506;HTU21D;53332;51.082;5.832;2022-10-31T07:42:40;12.42;118.99
66506;HTU21D;53332;51.082;5.832;2022-10-31T07:45:09;12.44;118.99
66506;HTU21D;53332;51.082;5.832;2022-10-31T07:47:45;12.46;118.99
66506;HTU21D;53332;51.082;5.832;2022-10-31T07:50:14;12.50;118.99
66506;HTU21D;53332;51.082;5.832;2022-10-31T07:52:40;12.56;118.99
66506;HTU21D;53332;51.082;5.832;2022-10-31T07:55:06;12.63;118.99
66506;HTU21D;53332;51.082;5.832;2022-10-31T07:57:33;12.73;118.99
66506;HTU21D;53332;51.082;5.832;2022-10-31T07:59:59;12.82;118.99
66506;HTU21D;53332;51.082;5.832;2022-10-31T08:02:26;12.92;118.99
66506;HTU21D;53332;51.082;5.832;2022-10-31T08:04:52;13.00;118.99
66506;HTU21D;53332;51.082;5.832;2022-10-31T08:07:18;13.11;118.99
66506;HTU21D;53332;51.082;5.832;2022-10-31T08:09:44;13.26;118.99
66506;HTU21D;53332;51.082;5.832;2022-10-31T08:12:09;13.41;118.99
66506;HTU21D;53332;51.082;5.832;2022-10-31T08:14:35;13.55;118.99
66506;HTU21D;53332;51.082;5.832;2022-10-31T08:17:01;13.67;118.99
66506;HTU21D;53332;51.082;5.832;2022-10-31T08:19:26;13.77;118.99
66506;HTU21D;53332;51.082;5.832;2022-10-31T08:21:52;13.80;118.99
66506;HTU21D;53332;51.082;5.832;2022-10-31T08:24:21;13.79;118.99
66506;HTU21D;53332;51.082;5.832;2022-10-31T08:26:47;13.83;118.99
66506;HTU21D;53332;51.082;5.832;2022-10-31T08:29:13;13.92;118.99
66506;HTU21D;53332;51.082;5.832;2022-10-31T08:31:40;14.00;118.99
66506;HTU21D;53332;51.082;5.832;2022-10-31T08:34:06;14.08;118.99
66506;HTU21D;53332;51.082;5.832;2022-10-31T08:36:32;14.20;118.99
66506;HTU21D;53332;51.082;5.832;2022-10-31T08:38:58;14.26;118.99
66506;HTU21D;53332;51.082;5.832;2022-10-31T08:41:23;14.34;118.99
66506;HTU21D;53332;51.082;5.832;2022-10-31T08:43:49;14.42;118.99
66506;HTU21D;53332;51.082;5.832;2022-10-31T08:46:15;14.50;118.99
66506;HTU21D;53332;51.082;5.832;2022-10-31T08:48:41;14.58;118.99
66506;HTU21D;53332;51.082;5.832;2022-10-31T08:51:07;14.65;118.99
66506;HTU21D;53332;51.082;5.832;2022-10-31T08:53:33;14.71;118.99
66506;HTU21D;53332;51.082;5.832;2022-10-31T08:55:59;14.77;118.99
66506;HTU21D;53332;51.082;5.832;2022-10-31T08:58:25;14.82;118.99
66506;HTU21D;53332;51.082;5.832;2022-10-31T09:00:53;14.91;118.99
66506;HTU21D;53332;51.082;5.832;2022-10-31T09:03:28;15.03;118.99
66506;HTU21D;53332;51.082;5.832;2022-10-31T09:05:56;15.18;118.99
66506;HTU21D;53332;51.082;5.832;2022-10-31T09:08:22;15.29;118.99
66506;HTU21D;53332;51.082;5.832;2022-10-31T09:10:48;15.42;118.99
66506;HTU21D;53332;51.082;5.832;2022-10-31T09:13:17;15.53;118.99
66506;HTU21D;53332;51.082;5.832;2022-10-31T09:15:44;15.61;118.99
66506;HTU21D;53332;51.082;5.832;2022-10-31T09:18:11;15.70;118.99
66506;HTU21D;53332;51.082;5.832;2022-10-31T09:20:39;15.82;118.99
66506;HTU21D;53332;51.082;5.832;2022-10-31T09:25:34;15.97;118.99
66506;HTU21D;53332;51.082;5.832;2022-10-31T09:28:02;16.06;118.99
66506;HTU21D;53332;51.082;5.832;2022-10-31T09:30:33;16.15;118.99
66506;HTU21D;53332;51.082;5.832;2022-10-31T09:33:02;16.17;118.99
66506;HTU21D;53332;51.082;5.832;2022-10-31T09:35:28;16.20;118.99
66506;HTU21D;53332;51.082;5.832;2022-10-31T09:38:01;16.25;118.99
66506;HTU21D;53332;51.082;5.832;2022-10-31T09:40:41;16.29;118.99
66506;HTU21D;53332;51.082;5.832;2022-10-31T09:43:31;16.34;118.99
66506;HTU21D;53332;51.082;5.832;2022-10-31T09:46:13;16.45;118.99
66506;HTU21D;53332;51.082;5.832;2022-10-31T09:51:18;16.67;118.99
66506;HTU21D;53332;51.082;5.832;2022-10-31T09:54:48;16.78;118.99
66506;HTU21D;53332;51.082;5.832;2022-10-31T09:56:39;16.95;118.99
66506;HTU21D;53332;51.082;5.832;2022-10-31T09:59:13;17.01;118.99
66506;HTU21D;53332;51.082;5.832;2022-10-31T10:01:55;17.03;118.99
66506;HTU21D;53332;51.082;5.832;2022-10-31T10:04:46;17.00;118.99
66506;HTU21D;53332;51.082;5.832;2022-10-31T10:10:28;16.95;118.99
66506;HTU21D;53332;51.082;5.832;2022-10-31T10:18:48;17.09;118.99
66506;HTU21D;53332;51.082;5.832;2022-10-31T10:27:46;17.44;118.99
66506;HTU21D;53332;51.082;5.832;2022-10-31T10:31:00;17.48;118.99
66506;HTU21D;53332;51.082;5.832;2022-10-31T10:35:50;17.53;118.99
66506;HTU21D;53332;51.082;5.832;2022-10-31T10:38:29;17.56;118.99
66506;HTU21D;53332;51.082;5.832;2022-10-31T10:41:02;17.61;118.99
66506;HTU21D;53332;51.082;5.832;2022-10-31T10:43:33;17.64;118.99
66506;HTU21D;53332;51.082;5.832;2022-10-31T10:46:22;17.67;118.99
66506;HTU21D;53332;51.082;5.832;2022-10-31T10:56:12;17.78;118.99
66506;HTU21D;53332;51.082;5.832;2022-10-31T10:58:12;17.82;118.99
66506;HTU21D;53332;51.082;5.832;2022-10-31T11:00:45;17.93;118.99
66506;HTU21D;53332;51.082;5.832;2022-10-31T11:03:13;18.00;118.99
66506;HTU21D;53332;51.082;5.832;2022-10-31T11:05:46;18.03;118.99
66506;HTU21D;53332;51.082;5.832;2022-10-31T11:08:24;18.12;118.99
66506;HTU21D;53332;51.082;5.832;2022-10-31T11:13:24;18.25;118.99
66506;HTU21D;53332;51.082;5.832;2022-10-31T11:18:22;18.42;118.99
66506;HTU21D;53332;51.082;5.832;2022-10-31T11:20:53;18.55;118.99
66506;HTU21D;53332;51.082;5.832;2022-10-31T11:23:21;18.62;118.99
66506;HTU21D;53332;51.082;5.832;2022-10-31T11:25:56;18.69;118.99
66506;HTU21D;53332;51.082;5.832;2022-10-31T11:28:22;18.81;118.99
66506;HTU21D;53332;51.082;5.832;2022-10-31T11:30:52;18.87;118.99
66506;HTU21D;53332;51.082;5.832;2022-10-31T11:36:20;18.84;118.99
66506;HTU21D;53332;51.082;5.832;2022-10-31T11:38:48;18.71;118.99
66506;HTU21D;53332;51.082;5.832;2022-10-31T11:41:18;18.71;118.99
66506;HTU21D;53332;51.082;5.832;2022-10-31T11:43:57;18.76;118.99
66506;HTU21D;53332;51.082;5.832;2022-10-31T11:46:48;18.81;118.99
66506;HTU21D;53332;51.082;5.832;2022-10-31T11:49:34;18.93;118.99
66506;HTU21D;53332;51.082;5.832;2022-10-31T11:52:06;18.94;118.99
66506;HTU21D;53332;51.082;5.832;2022-10-31T11:54:44;18.99;118.99
66506;HTU21D;53332;51.082;5.832;2022-10-31T11:57:27;19.05;118.99
66506;HTU21D;53332;51.082;5.832;2022-10-31T11:59:56;19.12;118.99
66506;HTU21D;53332;51.082;5.832;2022-10-31T12:02:24;19.23;118.99
66506;HTU21D;53332;51.082;5.832;2022-10-31T12:05:11;19.31;118.99
66506;HTU21D;53332;51.082;5.832;2022-10-31T12:07:43;19.38;118.99
66506;HTU21D;53332;51.082;5.832;2022-10-31T12:10:13;19.42;118.99
66506;HTU21D;53332;51.082;5.832;2022-10-31T12:15:34;19.36;118.99
66506;HTU21D;53332;51.082;5.832;2022-10-31T12:29:50;19.51;118.99
66506;HTU21D;53332;51.082;5.832;2022-10-31T12:36:12;19.53;118.99
66506;HTU21D;53332;51.082;5.832;2022-10-31T12:44:06;19.27;118.99
66506;HTU21D;53332;51.082;5.832;2022-10-31T12:49:38;19.21;118.99
66506;HTU21D;53332;51.082;5.832;2022-10-31T12:59:45;19.28;118.99
66506;HTU21D;53332;51.082;5.832;2022-10-31T13:02:39;19.41;118.99
66506;HTU21D;53332;51.082;5.832;2022-10-31T13:05:27;19.56;118.99
66506;HTU21D;53332;51.082;5.832;2022-10-31T13:08:09;19.69;118.99
66506;HTU21D;53332;51.082;5.832;2022-10-31T13:10:40;19.77;118.99
66506;HTU21D;53332;51.082;5.832;2022-10-31T13:13:21;19.77;118.99
66506;HTU21D;53332;51.082;5.832;2022-10-31T13:16:03;19.86;118.99
66506;HTU21D;53332;51.082;5.832;2022-10-31T13:18:44;19.95;118.99
66506;HTU21D;53332;51.082;5.832;2022-10-31T13:21:19;19.95;118.99
66506;HTU21D;53332;51.082;5.832;2022-10-31T13:23:49;19.89;118.99
66506;HTU21D;53332;51.082;5.832;2022-10-31T13:31:51;19.68;118.99
66506;HTU21D;53332;51.082;5.832;2022-10-31T13:34:39;19.60;118.99
66506;HTU21D;53332;51.082;5.832;2022-10-31T13:45:21;19.56;118.99
66506;HTU21D;53332;51.082;5.832;2022-10-31T13:47:59;19.59;118.99
66506;HTU21D;53332;51.082;5.832;2022-10-31T13:50:28;19.67;118.99
66506;HTU21D;53332;51.082;5.832;2022-10-31T13:53:14;19.72;118.99
66506;HTU21D;53332;51.082;5.832;2022-10-31T13:58:31;19.73;118.99
66506;HTU21D;53332;51.082;5.832;2022-10-31T14:03:39;19.82;118.99
66506;HTU21D;53332;51.082;5.832;2022-10-31T14:06:08;19.84;118.99
66506;HTU21D;53332;51.082;5.832;2022-10-31T14:08:37;19.84;118.99
66506;HTU21D;53332;51.082;5.832;2022-10-31T14:11:08;19.79;118.99
66506;HTU21D;53332;51.082;5.832;2022-10-31T14:13:38;19.66;118.99
66506;HTU21D;53332;51.082;5.832;2022-10-31T14:16:24;19.58;118.99
66506;HTU21D;53332;51.082;5.832;2022-10-31T14:19:06;19.43;118.99
66506;HTU21D;53332;51.082;5.832;2022-10-31T14:21:44;19.31;118.99
66506;HTU21D;53332;51.082;5.832;2022-10-31T14:29:22;19.12;118.99
66506;HTU21D;53332;51.082;5.832;2022-10-31T14:32:04;19.06;118.99
66506;HTU21D;53332;51.082;5.832;2022-10-31T14:34:42;19.05;118.99
66506;HTU21D;53332;51.082;5.832;2022-10-31T14:50:53;18.65;118.99
66506;HTU21D;53332;51.082;5.832;2022-10-31T14:53:48;18.56;118.99
66506;HTU21D;53332;51.082;5.832;2022-10-31T14:56:27;18.55;118.99
66506;HTU21D;53332;51.082;5.832;2022-10-31T14:58:59;18.55;118.99
66506;HTU21D;53332;51.082;5.832;2022-10-31T15:01:30;18.53;118.99
66506;HTU21D;53332;51.082;5.832;2022-10-31T15:04:16;18.52;118.99
66506;HTU21D;53332;51.082;5.832;2022-10-31T15:06:51;18.52;118.99
66506;HTU21D;53332;51.082;5.832;2022-10-31T15:09:27;18.50;118.99
66506;HTU21D;53332;51.082;5.832;2022-10-31T15:11:52;18.46;118.99
66506;HTU21D;53332;51.082;5.832;2022-10-31T15:14:28;18.40;118.99
66506;HTU21D;53332;51.082;5.832;2022-10-31T15:16:57;18.33;118.99
66506;HTU21D;53332;51.082;5.832;2022-10-31T15:19:26;18.28;118.99
66506;HTU21D;53332;51.082;5.832;2022-10-31T15:21:54;18.17;118.99
66506;HTU21D;53332;51.082;5.832;2022-10-31T15:24:27;18.06;118.99
66506;HTU21D;53332;51.082;5.832;2022-10-31T15:26:56;17.96;118.99
66506;HTU21D;53332;51.082;5.832;2022-10-31T15:29:26;17.90;118.99
66506;HTU21D;53332;51.082;5.832;2022-10-31T15:31:57;17.81;118.99
66506;HTU21D;53332;51.082;5.832;2022-10-31T15:34:32;17.74;118.99
66506;HTU21D;53332;51.082;5.832;2022-10-31T15:37:01;17.66;118.99
66506;HTU21D;53332;51.082;5.832;2022-10-31T15:39:26;17.63;118.99
66506;HTU21D;53332;51.082;5.832;2022-10-31T15:41:58;17.54;118.99
66506;HTU21D;53332;51.082;5.832;2022-10-31T15:44:34;17.45;118.99
66506;HTU21D;53332;51.082;5.832;2022-10-31T15:47:04;17.37;118.99
66506;HTU21D;53332;51.082;5.832;2022-10-31T15:49:48;17.26;118.99
66506;HTU21D;53332;51.082;5.832;2022-10-31T15:52:40;17.19;118.99
66506;HTU21D;53332;51.082;5.832;2022-10-31T15:58:01;17.02;118.99
66506;HTU21D;53332;51.082;5.832;2022-10-31T16:00:34;16.91;118.99
66506;HTU21D;53332;51.082;5.832;2022-10-31T16:03:07;16.82;118.99
66506;HTU21D;53332;51.082;5.832;2022-10-31T16:05:45;16.75;118.99
66506;HTU21D;53332;51.082;5.832;2022-10-31T16:14:01;16.57;118.99
66506;HTU21D;53332;51.082;5.832;2022-10-31T16:16:30;16.52;118.99
66506;HTU21D;53332;51.082;5.832;2022-10-31T16:18:59;16.48;118.99
66506;HTU21D;53332;51.082;5.832;2022-10-31T16:21:36;16.43;118.99
66506;HTU21D;53332;51.082;5.832;2022-10-31T16:24:18;16.39;118.99
66506;HTU21D;53332;51.082;5.832;2022-10-31T16:26:50;16.39;118.99
66506;HTU21D;53332;51.082;5.832;2022-10-31T16:29:36;16.36;118.99
66506;HTU21D;53332;51.082;5.832;2022-10-31T16:32:03;16.36;118.99
66506;HTU21D;53332;51.082;5.832;2022-10-31T16:34:29;16.34;118.99
66506;HTU21D;53332;51.082;5.832;2022-10-31T16:36:54;16.35;118.99
66506;HTU21D;53332;51.082;5.832;2022-10-31T16:39:20;16.35;118.99
66506;HTU21D;53332;51.082;5.832;2022-10-31T16:41:48;16.39;118.99
66506;HTU21D;53332;51.082;5.832;2022-10-31T16:44:24;16.40;118.99
66506;HTU21D;53332;51.082;5.832;2022-10-31T16:47:19;16.41;118.99
66506;HTU21D;53332;51.082;5.832;2022-10-31T16:49:48;16.41;118.99
66506;HTU21D;53332;51.082;5.832;2022-10-31T16:52:15;16.39;118.99
66506;HTU21D;53332;51.082;5.832;2022-10-31T16:54:40;16.34;118.99
66506;HTU21D;53332;51.082;5.832;2022-10-31T16:57:06;16.29;118.99
66506;HTU21D;53332;51.082;5.832;2022-10-31T16:59:36;16.21;118.99
66506;HTU21D;53332;51.082;5.832;2022-10-31T17:02:03;16.12;118.99
66506;HTU21D;53332;51.082;5.832;2022-10-31T17:04:29;16.03;118.99
66506;HTU21D;53332;51.082;5.832;2022-10-31T17:06:54;15.95;118.99
66506;HTU21D;53332;51.082;5.832;2022-10-31T17:09:20;15.83;118.99
66506;HTU21D;53332;51.082;5.832;2022-10-31T17:11:49;15.76;118.99
66506;HTU21D;53332;51.082;5.832;2022-10-31T17:14:18;15.67;118.99
66506;HTU21D;53332;51.082;5.832;2022-10-31T17:16:43;15.59;118.99
66506;HTU21D;53332;51.082;5.832;2022-10-31T17:19:10;15.52;118.99
66506;HTU21D;53332;51.082;5.832;2022-10-31T17:21:37;15.46;118.99
66506;HTU21D;53332;51.082;5.832;2022-10-31T17:24:03;15.39;118.99
66506;HTU21D;53332;51.082;5.832;2022-10-31T17:26:28;15.33;118.99
66506;HTU21D;53332;51.082;5.832;2022-10-31T17:28:54;15.28;118.99
66506;HTU21D;53332;51.082;5.832;2022-10-31T17:31:23;15.24;118.99
66506;HTU21D;53332;51.082;5.832;2022-10-31T17:33:54;15.21;118.99
66506;HTU21D;53332;51.082;5.832;2022-10-31T17:36:21;15.18;118.99
66506;HTU21D;53332;51.082;5.832;2022-10-31T17:38:47;15.13;118.99
66506;HTU21D;53332;51.082;5.832;2022-10-31T17:41:13;15.08;118.99
66506;HTU21D;53332;51.082;5.832;2022-10-31T17:43:39;15.03;118.99
66506;HTU21D;53332;51.082;5.832;2022-10-31T17:46:05;14.99;118.99
66506;HTU21D;53332;51.082;5.832;2022-10-31T17:48:33;14.96;118.99
66506;HTU21D;53332;51.082;5.832;2022-10-31T17:51:04;14.93;118.99